Map

Track Data

SID SEASON NUMBER BASIN SUBBASIN NAME ISO_TIME NATURE LAT LON WMO_WIND WMO_PRES WMO_AGENCY TRACK_TYPE DIST2LAND LANDFALL IFLAG USA_AGENCY USA_ATCF_ID USA_LAT USA_LON USA_RECORD USA_STATUS USA_WIND USA_PRES USA_SSHS USA_R34_NE USA_R34_SE USA_R34_SW USA_R34_NW USA_R50_NE USA_R50_SE USA_R50_SW USA_R50_NW USA_R64_NE USA_R64_SE USA_R64_SW USA_R64_NW USA_POCI USA_ROCI USA_RMW USA_EYE TOKYO_LAT TOKYO_LON TOKYO_GRADE TOKYO_WIND TOKYO_PRES TOKYO_R50_DIR TOKYO_R50_LONG TOKYO_R50_SHORT TOKYO_R30_DIR TOKYO_R30_LONG TOKYO_R30_SHORT TOKYO_LAND CMA_LAT CMA_LON CMA_CAT CMA_WIND CMA_PRES HKO_LAT HKO_LON HKO_CAT HKO_WIND HKO_PRES NEWDELHI_LAT NEWDELHI_LON NEWDELHI_GRADE NEWDELHI_WIND NEWDELHI_PRES NEWDELHI_CI NEWDELHI_DP NEWDELHI_POCI REUNION_LAT REUNION_LON REUNION_TYPE REUNION_WIND REUNION_PRES REUNION_TNUM REUNION_CI REUNION_RMW REUNION_R34_NE REUNION_R34_SE REUNION_R34_SW REUNION_R34_NW REUNION_R50_NE REUNION_R50_SE REUNION_R50_SW REUNION_R50_NW REUNION_R64_NE REUNION_R64_SE REUNION_R64_SW REUNION_R64_NW BOM_LAT BOM_LON BOM_TYPE BOM_WIND BOM_PRES BOM_TNUM BOM_CI BOM_RMW BOM_R34_NE BOM_R34_SE BOM_R34_SW BOM_R34_NW BOM_R50_NE BOM_R50_SE BOM_R50_SW BOM_R50_NW BOM_R64_NE BOM_R64_SE BOM_R64_SW BOM_R64_NW BOM_ROCI BOM_POCI BOM_EYE BOM_POS_METHOD BOM_PRES_METHOD NADI_LAT NADI_LON NADI_CAT NADI_WIND NADI_PRES WELLINGTON_LAT WELLINGTON_LON WELLINGTON_WIND WELLINGTON_PRES DS824_LAT DS824_LON DS824_STAGE DS824_WIND DS824_PRES TD9636_LAT TD9636_LON TD9636_STAGE TD9636_WIND TD9636_PRES TD9635_LAT TD9635_LON TD9635_WIND TD9635_PRES TD9635_ROCI NEUMANN_LAT NEUMANN_LON NEUMANN_CLASS NEUMANN_WIND NEUMANN_PRES MLC_LAT MLC_LON MLC_CLASS MLC_WIND MLC_PRES USA_GUST BOM_GUST BOM_GUST_PER REUNION_GUST REUNION_GUST_PER USA_SEAHGT USA_SEARAD_NE USA_SEARAD_SE USA_SEARAD_SW USA_SEARAD_NW STORM_SPEED STORM_DIR
1962052S27047 1962 26 SI MM ISABEL 1962-02-21 06:00:00 NR -27.2000 47.0000 reunion main 224 224 _____O________ -1 -27.2000 47.0000 99 9.90000 3 90
1962052S27047 1962 26 SI MM ISABEL 1962-02-21 09:00:00 NR -27.2000 47.1925 main 226 226 _____P________ -1 -27.2000 47.1925 99 4 90
1962052S27047 1962 26 SI MM ISABEL 1962-02-21 12:00:00 NR -27.2000 47.4000 reunion main 231 231 _____O________ -1 -27.2000 47.4000 99 9.90000 4 90
1962052S27047 1962 26 SI MM ISABEL 1962-02-21 15:00:00 NR -27.2000 47.6350 main 237 237 _____P________ -1 -27.2000 47.6350 99 4 90
1962052S27047 1962 26 SI MM ISABEL 1962-02-21 18:00:00 NR -27.2000 47.9000 reunion main 248 248 _____O________ -1 -27.2000 47.9000 99 9.90000 5 90
1962052S27047 1962 26 SI MM ISABEL 1962-02-21 21:00:00 NR -27.2000 48.2000 main 263 263 _____P________ -1 -27.2000 48.2000 99 5 90
1962052S27047 1962 26 SI MM ISABEL 1962-02-22 00:00:00 NR -27.2000 48.5000 reunion main 278 278 _____O________ -1 -27.2000 48.5000 99 9.90000 5 88
1962052S27047 1962 26 SI MM ISABEL 1962-02-22 03:00:00 NR -27.1848 48.7351 main 289 289 _____P________ -1 -27.1848 48.7351 99 4 90
1962052S27047 1962 26 SI MM ISABEL 1962-02-22 06:00:00 NR -27.2000 49.0000 reunion main 307 307 _____O________ -1 -27.2000 49.0000 99 9.90000 5 100
1962052S27047 1962 26 SI MM ISABEL 1962-02-22 09:00:00 NR -27.2767 49.3103 main 336 336 _____P________ -1 -27.2767 49.3103 99 7 106
1962052S27047 1962 26 SI MM ISABEL 1962-02-22 12:00:00 NR -27.4000 49.8000 reunion main 379 379 _____O________ -1 -27.4000 49.8000 99 9.90000 11 102
1962052S27047 1962 26 SI MM ISABEL 1962-02-22 15:00:00 NR -27.5051 50.5610 main 446 446 _____P________ -1 -27.5051 50.5610 99 15 101
1962052S27047 1962 26 SI MM ISABEL 1962-02-22 18:00:00 NR -27.7000 51.5000 reunion main 531 531 _____O________ -1 -27.7000 51.5000 99 9.90000 17 108
1962052S27047 1962 26 SI MM ISABEL 1962-02-22 21:00:00 NR -28.0460 52.4259 main 624 624 _____P________ -1 -28.0460 52.4259 99 19 114
1962052S27047 1962 26 SI MM ISABEL 1962-02-23 00:00:00 NR -28.5000 53.5000 reunion main 745 745 _____O________ -1 -28.5000 53.5000 99 9.90000 23 114
1962052S27047 1962 26 SI MM ISABEL 1962-02-23 03:00:00 NR -29.0005 54.8119 main 852 852 _____P________ -1 -29.0005 54.8119 99 26 113
1962052S27047 1962 26 SI MM ISABEL 1962-02-23 06:00:00 NR -29.5000 56.2000 reunion main 906 906 _____O________ -1 -29.5000 56.2000 99 9.90000 25 112
1962052S27047 1962 26 SI MM ISABEL 1962-02-23 09:00:00 NR -29.9209 57.4664 main 968 968 _____P________ -1 -29.9209 57.4664 99 23 110
1962052S27047 1962 26 SI MM ISABEL 1962-02-23 12:00:00 NR -30.3000 58.7000 reunion main 1041 1041 _____O________ -1 -30.3000 58.7000 99 9.90000 23 109
1962052S27047 1962 26 SI MM ISABEL 1962-02-23 15:00:00 NR -30.6409 59.9370 main 1113 1113 _____P________ -1 -30.6409 59.9370 99 23 108
1962052S27047 1962 26 SI MM ISABEL 1962-02-23 18:00:00 NR -31.0000 61.2000 reunion main 1208 1208 _____O________ -1 -31.0000 61.2000 99 9.90000 24 109
1962052S27047 1962 26 SI MM ISABEL 1962-02-23 21:00:00 NR -31.4268 62.5432 main 1308 1308 _____P________ -1 -31.4268 62.5432 99 25 111
1962052S27047 1962 26 SI MM ISABEL 1962-02-24 00:00:00 NR -31.9000 63.9000 reunion main 1414 1414 _____O________ -1 -31.9000 63.9000 99 9.90000 25 113
1962052S27047 1962 26 SI MM ISABEL 1962-02-24 03:00:00 NR -32.3982 65.2010 main 1522 1522 _____P________ -1 -32.3982 65.2010 99 24 114
1962052S27047 1962 26 SI MM ISABEL 1962-02-24 06:00:00 NR -32.9000 66.5000 reunion main 1635 1635 _____O________ -1 -32.9000 66.5000 99 9.90000 24 114
1962052S27047 1962 26 SI MM ISABEL 1962-02-24 09:00:00 NR -33.3657 67.8349 main 1715 1668 _____P________ -1 -33.3657 67.8349 99 24 112
1962052S27047 1962 26 SI MM ISABEL 1962-02-24 12:00:00 NR -33.8000 69.2000 reunion main 1668 _____O________ -1 -33.8000 69.2000 99 9.90000 24 111

About IBTrACS Database

This database is a web-friendly format of International Best Track Archive for Climate Stewardship (IBTrACS), a global best track data archive curated by NOAA dating back to 1842.

Updated: 2021-11-26